Time;durP1;ratioP1;P1;durP2;ratioP2;P2;SDS_P1;SDS_P2;PMS_P1;PMS_P2;Temp;Humidity;BMP_temperature;BMP_pressure;BME280_temperature;BME280_humidity;BME280_pressure;Samples;Min_cycle;Max_cycle;Signal;HPM_P1;HPM_P2
2023/01/14 00:02:26;;;;;;;15.98;3.90;;;;;;;5.48;100.00;101323.72;5244139;28;20029;-77
2023/01/14 00:04:58;;;;;;;20.63;4.57;;;;;;;5.39;100.00;101326.78;5236021;28;20040;-77
2023/01/14 00:07:29;;;;;;;22.33;4.20;;;;;;;5.38;100.00;101345.38;5245730;28;20032;-76
2023/01/14 00:10:01;;;;;;;22.10;3.85;;;;;;;5.40;100.00;101344.38;5251966;28;20037;-76
2023/01/14 00:12:32;;;;;;;19.58;5.05;;;;;;;5.35;100.00;101354.31;5248178;28;20469;-76
2023/01/14 00:15:04;;;;;;;21.35;4.53;;;;;;;5.29;100.00;101354.59;5250558;28;20056;-76
2023/01/14 00:17:35;;;;;;;17.63;4.18;;;;;;;5.31;100.00;101339.50;5246410;28;20021;-75
2023/01/14 00:20:07;;;;;;;18.50;4.10;;;;;;;5.25;100.00;101345.97;5245013;28;20032;-76
2023/01/14 00:22:38;;;;;;;18.08;4.28;;;;;;;5.21;100.00;101349.66;5251103;28;20120;-76
2023/01/14 00:25:09;;;;;;;20.73;4.43;;;;;;;5.26;100.00;101338.88;5248584;28;20060;-76
2023/01/14 00:27:41;;;;;;;23.80;4.22;;;;;;;5.19;100.00;101333.00;5247444;28;20166;-77
2023/01/14 00:30:12;;;;;;;19.70;3.85;;;;;;;5.17;100.00;101336.66;5238050;28;20029;-76
2023/01/14 00:32:43;;;;;;;21.73;4.18;;;;;;;5.15;100.00;101327.94;5246676;28;20674;-76
2023/01/14 00:35:15;;;;;;;24.17;4.20;;;;;;;5.16;100.00;101335.81;5239586;28;20043;-76
2023/01/14 00:37:46;;;;;;;19.60;4.35;;;;;;;5.15;100.00;101322.63;5252701;28;20433;-76
2023/01/14 00:40:17;;;;;;;22.70;4.20;;;;;;;5.10;100.00;101326.34;5250875;28;20510;-76
2023/01/14 00:42:48;;;;;;;20.65;3.92;;;;;;;5.07;100.00;101331.78;5250879;28;20079;-76
2023/01/14 00:45:20;;;;;;;23.08;4.75;;;;;;;5.03;100.00;101337.28;5246355;28;20055;-76
2023/01/14 00:47:52;;;;;;;24.30;6.93;;;;;;;5.02;100.00;101346.13;5249325;28;20037;-76
2023/01/14 00:50:23;;;;;;;28.20;5.20;;;;;;;5.12;100.00;101352.75;5248837;28;20122;-76
2023/01/14 00:52:54;;;;;;;20.42;4.13;;;;;;;5.03;100.00;101346.06;5252620;28;20562;-76
2023/01/14 00:55:26;;;;;;;25.77;5.15;;;;;;;4.98;100.00;101348.06;5250024;28;20053;-76
2023/01/14 00:57:57;;;;;;;27.92;5.05;;;;;;;5.00;100.00;101340.91;5250674;28;20037;-76
2023/01/14 01:00:28;;;;;;;28.60;4.63;;;;;;;4.99;100.00;101347.13;5249807;28;20033;-76
2023/01/14 01:03:00;;;;;;;27.30;4.95;;;;;;;4.98;100.00;101349.84;5251255;28;20044;-76
2023/01/14 01:05:34;;;;;;;27.65;5.88;;;;;;;4.98;100.00;101349.84;5249228;28;20048;-76
2023/01/14 01:08:09;;;;;;;22.45;5.32;;;;;;;4.97;100.00;101351.66;5254278;28;20052;-77
2023/01/14 01:10:44;;;;;;;23.98;4.78;;;;;;;4.93;100.00;101355.34;5249437;28;20025;-76
2023/01/14 01:13:16;;;;;;;36.42;5.90;;;;;;;4.91;100.00;101357.22;5248738;28;20029;-76
2023/01/14 01:15:47;;;;;;;24.90;5.60;;;;;;;4.88;100.00;101352.91;5250857;28;20166;-77
2023/01/14 01:18:19;;;;;;;31.48;5.53;;;;;;;4.87;100.00;101355.59;5253246;28;20498;-76
2023/01/14 01:20:50;;;;;;;23.23;4.97;;;;;;;4.91;100.00;101352.78;5249012;28;20924;-77
2023/01/14 01:23:22;;;;;;;22.75;4.70;;;;;;;4.86;100.00;101348.63;5249561;28;20118;-76
2023/01/14 01:26:04;;;;;;;25.95;5.22;;;;;;;4.83;100.00;101349.63;5247903;28;20041;-76
2023/01/14 01:28:35;;;;;;;30.65;5.18;;;;;;;4.84;100.00;101346.03;5250855;28;20115;-76
2023/01/14 01:31:10;;;;;;;25.90;4.80;;;;;;;4.82;100.00;101347.88;5253721;28;20029;-76
2023/01/14 01:33:43;;;;;;;30.85;5.55;;;;;;;4.78;100.00;101342.81;5252246;28;20499;-76
2023/01/14 01:36:32;;;;;;;23.42;5.18;;;;;;;4.89;100.00;101348.50;5239964;28;20455;-77
2023/01/14 01:39:04;;;;;;;20.88;4.85;;;;;;;4.80;100.00;101341.81;5248419;28;20068;-76
2023/01/14 01:41:35;;;;;;;29.48;4.93;;;;;;;4.76;100.00;101348.16;5250436;28;20582;-76
2023/01/14 01:44:28;;;;;;;29.08;5.38;;;;;;;4.76;100.00;101344.69;5256162;28;20032;-76
2023/01/14 01:47:00;;;;;;;34.60;5.40;;;;;;;4.80;100.00;101348.91;5251290;28;20033;-76
2023/01/14 01:49:34;;;;;;;32.33;5.22;;;;;;;4.74;100.00;101338.56;5251089;28;20028;-76
2023/01/14 01:52:18;;;;;;;25.48;5.50;;;;;;;4.74;100.00;101349.13;5254881;28;20032;-76
2023/01/14 01:55:00;;;;;;;35.25;5.80;;;;;;;4.75;100.00;101342.94;5256006;28;20436;-76
2023/01/14 01:57:32;;;;;;;31.55;6.13;;;;;;;4.75;100.00;101341.16;5252281;28;20084;-75
2023/01/14 02:00:07;;;;;;;33.47;6.07;;;;;;;4.70;100.00;101344.00;5252059;28;20479;-76
2023/01/14 02:02:38;;;;;;;26.55;5.90;;;;;;;4.69;100.00;101344.06;5253077;28;20039;-76
2023/01/14 02:05:10;;;;;;;37.83;6.28;;;;;;;4.69;100.00;101333.50;5251316;28;20025;-76
2023/01/14 02:07:43;;;;;;;27.83;5.00;;;;;;;4.68;100.00;101334.44;5251033;28;20035;-76
2023/01/14 02:10:16;;;;;;;30.88;5.55;;;;;;;4.71;100.00;101329.84;5251996;28;20033;-77
2023/01/14 02:13:09;;;;;;;31.02;5.30;;;;;;;4.67;100.00;101323.00;5252317;28;20023;-76
2023/01/14 02:16:03;;;;;;;26.65;5.95;;;;;;;4.66;100.00;101313.34;5258796;28;20107;-76
2023/01/14 02:18:46;;;;;;;32.33;4.45;;;;;;;4.66;100.00;101315.13;5249796;28;20033;-76
2023/01/14 02:21:21;;;;;;;30.20;5.28;;;;;;;4.64;100.00;101290.53;5255893;28;20057;-76
2023/01/14 02:24:13;;;;;;;;;;;;;;;4.67;100.00;101285.97;5252301;28;20029;-76
2023/01/14 02:27:16;;;;;;;26.02;5.63;;;;;;;4.64;100.00;101287.91;5253877;28;19916;-76
2023/01/14 02:30:01;;;;;;;27.83;4.63;;;;;;;4.67;100.00;101269.28;5248220;28;20027;-76
2023/01/14 02:33:01;;;;;;;34.22;6.00;;;;;;;4.60;100.00;101267.81;5258455;28;20031;-76
2023/01/14 02:35:43;;;;;;;24.98;5.25;;;;;;;4.60;100.00;101263.41;5254060;28;20032;-76
2023/01/14 02:38:20;;;;;;;31.15;4.97;;;;;;;4.63;100.00;101249.19;5256686;28;20029;-76
2023/01/14 02:41:15;;;;;;;29.95;5.63;;;;;;;4.58;100.00;101252.03;5254202;28;20029;-76
2023/01/14 02:44:10;;;;;;;25.35;4.82;;;;;;;4.55;100.00;101243.41;5253576;28;20483;-76
2023/01/14 02:46:48;;;;;;;25.08;4.88;;;;;;;4.59;100.00;101240.56;5253045;28;20382;-76
2023/01/14 02:49:23;;;;;;;30.20;5.93;;;;;;;4.54;100.00;101241.69;5249672;28;20056;-76
2023/01/14 02:51:56;;;;;;;26.88;5.28;;;;;;;4.57;100.00;101231.00;5247328;28;20029;-76
2023/01/14 02:54:28;;;;;;;29.40;6.13;;;;;;;4.52;100.00;101233.81;5247029;28;20589;-75
2023/01/14 02:57:18;;;;;;;33.33;6.30;;;;;;;4.53;100.00;101230.25;5246246;28;20078;-76
2023/01/14 03:00:14;;;;;;;38.65;6.38;;;;;;;4.61;100.00;101229.91;5243374;28;20033;-76
2023/01/14 03:02:55;;;;;;;32.13;5.00;;;;;;;4.57;100.00;101231.84;5240169;28;20426;-76
2023/01/14 03:05:45;;;;;;;26.08;4.75;;;;;;;4.56;100.00;101237.19;5252455;28;20033;-76
2023/01/14 03:08:44;;;;;;;30.48;5.18;;;;;;;4.55;100.00;101230.19;5241470;28;20063;-76
2023/01/14 03:11:15;;;;;;;25.30;5.63;;;;;;;4.57;100.00;101221.25;5245037;28;20033;-76
2023/01/14 03:14:01;;;;;;;33.50;4.88;;;;;;;4.57;100.00;101220.41;5241355;28;20036;-76
2023/01/14 03:17:04;;;;;;;24.85;4.55;;;;;;;4.60;100.00;101204.41;5239954;28;20036;-75
2023/01/14 03:19:43;;;;;;;32.50;6.60;;;;;;;4.54;100.00;101191.47;5244442;28;20044;-76
2023/01/14 03:22:14;;;;;;;27.08;4.63;;;;;;;4.60;100.00;101188.53;5243505;28;20041;-76
2023/01/14 03:24:47;;;;;;;29.98;4.47;;;;;;;4.56;100.00;101187.81;5240097;28;20036;-76
2023/01/14 03:27:23;;;;;;;26.65;4.90;;;;;;;4.60;100.00;101189.44;5242329;28;20066;-76
2023/01/14 03:30:01;;;;;;;34.03;5.30;;;;;;;4.62;100.00;101190.22;5242725;28;20060;-75
2023/01/14 03:32:41;;;;;;;29.38;5.50;;;;;;;4.63;100.00;101185.78;5244074;28;20112;-76
2023/01/14 03:35:26;;;;;;;27.30;4.82;;;;;;;4.66;100.00;101178.56;5243237;28;20147;-76
2023/01/14 03:38:03;;;;;;;29.75;4.88;;;;;;;4.66;100.00;101181.22;5241929;28;20039;-76
2023/01/14 03:40:37;;;;;;;25.73;4.65;;;;;;;4.66;100.00;101194.41;5243259;28;20032;-76
2023/01/14 03:43:19;;;;;;;24.92;5.78;;;;;;;4.70;100.00;101190.69;5243674;28;20063;-76
2023/01/14 03:45:52;;;;;;;26.20;5.00;;;;;;;4.74;100.00;101179.97;5240080;28;20028;-76
2023/01/14 03:48:24;;;;;;;25.33;4.38;;;;;;;4.75;100.00;101184.34;5242470;28;20039;-76
2023/01/14 03:51:00;;;;;;;26.52;4.28;;;;;;;4.81;100.00;101176.97;5240152;28;20064;-76
2023/01/14 03:53:54;;;;;;;22.88;5.03;;;;;;;4.80;100.00;101167.34;5240800;28;20033;-76
2023/01/14 03:56:43;;;;;;;26.25;4.78;;;;;;;4.80;100.00;101151.47;5241725;28;20118;-76
2023/01/14 03:59:24;;;;;;;24.30;5.47;;;;;;;4.82;100.00;101152.25;5240970;28;20025;-76
2023/01/14 04:01:56;;;;;;;26.00;4.38;;;;;;;4.80;100.00;101148.84;5239997;28;20037;-76
2023/01/14 04:04:27;;;;;;;19.25;3.95;;;;;;;4.84;100.00;101153.03;5241633;28;20476;-76
2023/01/14 04:06:58;;;;;;;24.83;4.95;;;;;;;4.86;100.00;101148.53;5244774;28;20044;-76
2023/01/14 04:09:30;;;;;;;20.88;4.10;;;;;;;4.94;100.00;101144.69;5243173;28;20035;-76
2023/01/14 04:12:01;;;;;;;25.83;4.28;;;;;;;4.85;100.00;101125.69;5246973;28;20037;-76
2023/01/14 04:17:23;;;;;;;25.48;4.07;;;;;;;4.90;100.00;101123.66;5249937;28;20562;-76
2023/01/14 04:19:54;;;;;;;28.40;4.32;;;;;;;4.90;100.00;101114.88;5246070;28;20128;-76
2023/01/14 04:22:25;;;;;;;27.17;4.85;;;;;;;4.92;100.00;101115.66;5248687;28;20124;-77
2023/01/14 04:24:56;;;;;;;30.10;5.25;;;;;;;4.91;100.00;101106.88;5247282;28;20636;-76
2023/01/14 04:27:28;;;;;;;19.38;4.13;;;;;;;4.88;100.00;101099.09;5247182;28;20502;-76
2023/01/14 04:29:59;;;;;;;23.83;4.22;;;;;;;4.95;100.00;101098.78;5248520;28;20036;-77
2023/01/14 04:32:30;;;;;;;24.98;4.43;;;;;;;4.95;100.00;101088.19;5246786;28;20064;-76
2023/01/14 04:35:03;;;;;;;22.30;4.05;;;;;;;4.89;100.00;101092.88;5246516;28;20040;-76
2023/01/14 04:37:34;;;;;;;23.45;4.75;;;;;;;4.85;100.00;101086.03;5245825;28;20036;-76
2023/01/14 04:40:06;;;;;;;23.85;5.53;;;;;;;4.89;100.00;101086.75;5248852;28;20059;-76
2023/01/14 04:42:37;;;;;;;20.48;3.78;;;;;;;4.89;100.00;101079.66;5249828;28;20039;-77
2023/01/14 04:45:09;;;;;;;24.65;4.70;;;;;;;4.87;100.00;101081.53;5247244;28;20044;-76
2023/01/14 04:47:40;;;;;;;27.95;4.78;;;;;;;4.82;100.00;101078.25;5255700;28;20040;-76
2023/01/14 04:50:30;;;;;;;24.95;4.78;;;;;;;4.80;100.00;101080.09;5248090;28;20033;-76
2023/01/14 04:53:23;;;;;;;23.95;4.50;;;;;;;4.81;100.00;101073.03;5250490;28;20482;-76
2023/01/14 04:55:57;;;;;;;21.70;4.68;;;;;;;4.81;100.00;101076.50;5244961;28;20399;-76
2023/01/14 04:58:28;;;;;;;23.83;4.95;;;;;;;4.83;100.00;101065.88;5246978;28;20494;-76
2023/01/14 05:01:00;;;;;;;26.95;4.28;;;;;;;4.82;100.00;101066.81;5244759;28;20037;-77
2023/01/14 05:03:32;;;;;;;20.30;3.80;;;;;;;4.80;100.00;101053.66;5243496;28;20021;-77
2023/01/14 05:06:04;;;;;;;27.08;3.88;;;;;;;4.84;100.00;101059.66;5243399;28;20108;-76
2023/01/14 05:08:35;;;;;;;29.30;4.43;;;;;;;4.81;100.00;101051.88;5244418;28;20021;-76
2023/01/14 05:11:07;;;;;;;23.55;3.97;;;;;;;4.82;100.00;101046.53;5243612;28;20058;-76
2023/01/14 05:13:38;;;;;;;26.63;4.32;;;;;;;4.84;100.00;101046.44;5248547;28;20036;-76
2023/01/14 05:16:09;;;;;;;20.88;4.85;;;;;;;4.83;100.00;101037.66;5242008;28;20040;-76
2023/01/14 05:18:40;;;;;;;25.77;3.95;;;;;;;4.83;100.00;101037.66;5243224;28;20544;-76
2023/01/14 05:21:12;;;;;;;20.48;3.67;;;;;;;4.88;100.00;101030.34;5242515;28;20051;-76
2023/01/14 05:23:44;;;;;;;19.05;3.70;;;;;;;4.85;100.00;101019.06;5243013;28;20037;-76
2023/01/14 05:26:16;;;;;;;28.10;4.18;;;;;;;4.88;100.00;101014.47;5241950;28;20032;-76
2023/01/14 05:28:47;;;;;;;31.15;4.90;;;;;;;4.87;100.00;101004.84;5246842;28;20059;-76
2023/01/14 05:31:18;;;;;;;16.67;3.90;;;;;;;4.97;100.00;100993.81;5242326;28;20029;-76
2023/01/14 05:33:49;;;;;;;20.08;4.07;;;;;;;4.93;100.00;100982.53;5246313;28;20567;-75
2023/01/14 05:36:21;;;;;;;18.85;3.65;;;;;;;4.91;100.00;100969.41;5240040;28;20537;-77
2023/01/14 05:38:52;;;;;;;18.80;3.25;;;;;;;4.94;100.00;100972.81;5244808;28;20781;-76
2023/01/14 05:41:23;;;;;;;23.00;3.60;;;;;;;4.98;100.00;100961.13;5241598;28;20182;-76
2023/01/14 05:46:45;;;;;;;22.05;3.85;;;;;;;5.01;100.00;100945.97;5244523;28;20067;-75
2023/01/14 05:49:16;;;;;;;23.35;4.65;;;;;;;5.02;100.00;100937.09;5246178;28;20029;-76
2023/01/14 05:51:47;;;;;;;24.08;4.00;;;;;;;5.07;100.00;100937.72;5240610;28;20569;-76
2023/01/14 05:54:18;;;;;;;22.48;4.00;;;;;;;5.06;100.00;100929.88;5243835;28;20403;-75
2023/01/14 05:56:50;;;;;;;18.67;3.88;;;;;;;5.07;100.00;100931.59;5243730;28;21122;-76
2023/01/14 05:59:21;;;;;;;20.83;3.65;;;;;;;5.06;100.00;100914.88;5244800;28;20517;-76
2023/01/14 06:07:32;;;;;;;16.65;3.33;;;;;;;5.12;100.00;100897.84;5240296;28;20045;-76
2023/01/14 06:10:03;;;;;;;17.45;3.25;;;;;;;5.15;100.00;100894.16;5244020;28;20033;-76
2023/01/14 06:15:35;;;;;;;19.25;3.20;;;;;;;5.22;100.00;100879.69;5238940;28;20041;-76
2023/01/14 06:18:13;;;;;;;16.77;3.50;;;;;;;5.22;100.00;100874.38;5241207;28;20036;-75
2023/01/14 06:20:44;;;;;;;19.83;3.83;;;;;;;5.24;100.00;100862.78;5243355;28;20048;-76
2023/01/14 06:23:16;;;;;;;20.85;3.33;;;;;;;5.23;100.00;100861.06;5242444;28;20079;-76
2023/01/14 06:25:49;;;;;;;26.33;3.88;;;;;;;5.25;100.00;100855.69;5241616;28;20041;-76
2023/01/14 06:28:20;;;;;;;22.45;3.70;;;;;;;5.26;100.00;100858.25;5241177;28;20032;-76
2023/01/14 06:30:51;;;;;;;20.27;3.40;;;;;;;5.28;100.00;100848.44;5244155;28;20024;-76
2023/01/14 06:33:23;;;;;;;21.80;4.13;;;;;;;5.30;100.00;100830.69;5244395;28;20021;-77
2023/01/14 06:35:55;;;;;;;24.33;3.75;;;;;;;5.31;100.00;100836.81;5242000;28;20029;-76
2023/01/14 06:38:27;;;;;;;19.23;3.58;;;;;;;5.35;100.00;100827.81;5240306;28;20077;-76
2023/01/14 06:41:02;;;;;;;26.17;3.90;;;;;;;5.35;100.00;100822.53;5243869;28;20104;-76
2023/01/14 06:43:35;;;;;;;21.17;3.35;;;;;;;5.35;100.00;100811.94;5242566;28;20059;-76
2023/01/14 06:46:06;;;;;;;21.27;3.60;;;;;;;5.35;100.00;100811.94;5237353;28;20029;-76
2023/01/14 06:48:38;;;;;;;19.15;3.80;;;;;;;5.36;100.00;100792.47;5241959;28;20106;-76
2023/01/14 06:51:13;;;;;;;18.33;3.70;;;;;;;5.38;100.00;100795.03;5242695;28;20036;-76
2023/01/14 06:53:44;;;;;;;15.82;2.90;;;;;;;5.41;100.00;100789.59;5241189;28;20025;-75
2023/01/14 06:56:17;;;;;;;23.00;3.67;;;;;;;5.38;100.00;100787.09;5242507;28;20078;-75
2023/01/14 06:58:49;;;;;;;27.05;4.57;;;;;;;5.36;100.00;100770.47;5240923;28;20064;-75
2023/01/14 07:01:21;;;;;;;21.38;4.05;;;;;;;5.42;100.00;100772.75;5240079;28;20045;-74
2023/01/14 07:03:52;;;;;;;18.80;4.35;;;;;;;5.46;100.00;100766.34;5247501;28;20028;-74
2023/01/14 07:06:24;;;;;;;20.75;3.80;;;;;;;5.44;100.00;100763.78;5243679;28;20498;-74
2023/01/14 07:08:55;;;;;;;16.65;3.50;;;;;;;5.48;100.00;100751.22;5244624;28;20475;-74
2023/01/14 07:11:26;;;;;;;19.90;3.17;;;;;;;5.46;100.00;100747.81;5244318;28;20029;-74
2023/01/14 07:13:57;;;;;;;19.60;4.03;;;;;;;5.47;100.00;100739.81;5248929;28;20090;-74
2023/01/14 07:16:29;;;;;;;17.33;3.47;;;;;;;5.47;100.00;100734.50;5242285;28;20025;-74
2023/01/14 07:19:00;;;;;;;20.35;3.30;;;;;;;5.46;100.00;100716.91;5241952;28;20033;-74
2023/01/14 07:21:31;;;;;;;20.25;3.55;;;;;;;5.53;100.00;100704.19;5239237;28;20044;-74
2023/01/14 07:24:03;;;;;;;20.75;3.70;;;;;;;5.49;100.00;100705.31;5245009;28;20440;-74
2023/01/14 07:26:34;;;;;;;19.02;2.97;;;;;;;5.52;100.00;100691.91;5240685;28;20043;-73
2023/01/14 07:29:05;;;;;;;19.35;4.65;;;;;;;5.49;100.00;100687.63;5244066;28;20603;-74
2023/01/14 07:31:37;;;;;;;18.33;4.50;;;;;;;5.54;100.00;100683.88;5239168;28;20511;-74
2023/01/14 07:34:08;;;;;;;17.90;3.97;;;;;;;5.54;100.00;100700.59;5243957;28;20467;-73
2023/01/14 07:36:39;;;;;;;18.38;3.38;;;;;;;5.56;100.00;100688.16;5241886;28;20035;-72
2023/01/14 07:39:10;;;;;;;20.33;3.63;;;;;;;5.55;100.00;100670.56;5241671;28;20036;-73
2023/01/14 07:41:42;;;;;;;14.40;3.80;;;;;;;5.56;100.00;100666.97;5239308;28;20113;-73
2023/01/14 07:44:13;;;;;;;14.55;3.63;;;;;;;5.56;100.00;100661.69;5239313;28;20486;-73
2023/01/14 07:46:44;;;;;;;15.27;3.30;;;;;;;5.58;100.00;100653.63;5251322;28;20540;-74
2023/01/14 07:49:15;;;;;;;17.55;3.67;;;;;;;5.58;100.00;100635.09;5247033;28;20649;-74
2023/01/14 07:51:48;;;;;;;15.30;3.65;;;;;;;5.61;100.00;100635.78;5246767;28;20729;-74
2023/01/14 07:54:19;;;;;;;15.32;3.42;;;;;;;5.63;100.00;100627.75;5249849;28;20108;-74
2023/01/14 07:56:51;;;;;;;11.77;3.40;;;;;;;5.62;100.00;100613.69;5247783;28;20082;-74
2023/01/14 07:59:22;;;;;;;13.57;3.10;;;;;;;5.66;100.00;100601.13;5245148;28;20044;-74
2023/01/14 08:01:53;;;;;;;17.42;3.50;;;;;;;5.66;100.00;100587.88;5247105;28;20108;-75
2023/01/14 08:04:25;;;;;;;14.68;4.05;;;;;;;5.67;100.00;100582.47;5253321;28;20056;-74
2023/01/14 08:06:58;;;;;;;17.52;3.60;;;;;;;5.68;100.00;100570.97;5248896;28;20083;-75
2023/01/14 08:09:29;;;;;;;14.82;4.43;;;;;;;5.72;100.00;100574.28;5248747;28;20032;-74
2023/01/14 08:12:00;;;;;;;13.93;3.25;;;;;;;5.70;100.00;100553.19;5252821;28;20028;-74
2023/01/14 08:14:32;;;;;;;13.77;3.50;;;;;;;5.73;100.00;100546.00;5250094;28;20033;-75
2023/01/14 08:17:04;;;;;;;14.25;3.30;;;;;;;5.74;100.00;100551.22;5251773;28;20043;-74
2023/01/14 08:19:36;;;;;;;13.00;3.20;;;;;;;5.76;100.00;100536.06;5249523;28;20045;-74
2023/01/14 08:22:07;;;;;;;11.35;3.10;;;;;;;5.80;100.00;100523.50;5251233;28;20596;-74
2023/01/14 08:24:39;;;;;;;10.55;2.95;;;;;;;5.79;100.00;100522.66;5253057;28;20467;-75
2023/01/14 08:27:10;;;;;;;9.63;2.85;;;;;;;5.82;100.00;100513.69;5249438;28;20033;-75
2023/01/14 08:29:41;;;;;;;10.88;3.05;;;;;;;5.83;100.00;100502.13;5249278;28;20025;-75
2023/01/14 08:32:13;;;;;;;9.52;2.30;;;;;;;5.87;100.00;100501.84;5248406;28;20140;-75
2023/01/14 08:34:45;;;;;;;9.93;2.42;;;;;;;5.87;100.00;100483.31;5250855;28;20029;-75
2023/01/14 08:37:17;;;;;;;13.77;3.00;;;;;;;5.90;100.00;100475.16;5245758;28;20377;-75
2023/01/14 08:39:48;;;;;;;9.95;2.80;;;;;;;5.92;100.00;100472.44;5253569;28;20029;-75
2023/01/14 08:42:19;;;;;;;23.70;11.38;;;;;;;5.95;100.00;100466.09;5246681;28;20021;-75
2023/01/14 08:44:51;;;;;;;43.72;22.15;;;;;;;6.01;100.00;100444.56;5249501;28;20510;-75
2023/01/14 08:47:22;;;;;;;23.90;13.48;;;;;;;5.99;100.00;100449.94;5241600;28;20040;-75
2023/01/14 08:49:53;;;;;;;13.98;3.97;;;;;;;6.00;100.00;100438.41;5247099;28;20040;-75
2023/01/14 08:52:24;;;;;;;10.63;4.28;;;;;;;6.03;100.00;100437.38;5244773;28;20067;-75
2023/01/14 08:54:56;;;;;;;6.63;2.85;;;;;;;6.03;100.00;100429.41;5239877;28;20047;-75
2023/01/14 08:57:28;;;;;;;9.43;3.03;;;;;;;6.06;100.00;100421.28;5239255;28;21054;-75
2023/01/14 09:00:00;;;;;;;9.48;3.25;;;;;;;6.08;100.00;100404.34;5242229;28;20501;-74
2023/01/14 09:02:31;;;;;;;11.23;3.60;;;;;;;6.11;100.00;100405.09;5243578;28;20024;-74
2023/01/14 09:05:03;;;;;;;8.75;3.20;;;;;;;6.11;100.00;100386.53;5251680;28;20028;-74
2023/01/14 09:18:54;;;;;;;11.25;2.28;;;;;;;6.22;100.00;100354.91;5246753;28;20037;-75
2023/01/14 09:21:25;;;;;;;13.20;2.90;;;;;;;6.22;100.00;100347.81;5238913;28;20045;-75
2023/01/14 09:23:57;;;;;;;14.38;2.72;;;;;;;6.26;100.00;100351.09;5242917;28;20509;-76
2023/01/14 09:26:28;;;;;;;12.50;2.67;;;;;;;6.27;100.00;100342.19;5244997;28;20030;-76
2023/01/14 09:28:59;;;;;;;10.25;2.40;;;;;;;6.30;100.00;100335.84;5243680;28;20032;-76
2023/01/14 09:31:31;;;;;;;9.35;3.00;;;;;;;6.32;100.00;100318.88;5239742;28;20060;-76
2023/01/14 09:34:02;;;;;;;10.00;3.58;;;;;;;6.35;100.00;100312.53;5244160;28;20037;-76
2023/01/14 09:36:33;;;;;;;11.13;2.60;;;;;;;6.37;100.00;100315.94;5240113;28;20112;-76
2023/01/14 09:39:05;;;;;;;10.85;3.03;;;;;;;6.39;100.00;100301.63;5240679;28;20067;-76
2023/01/14 09:41:45;;;;;;;11.32;3.20;;;;;;;6.42;100.00;100305.88;5244044;28;20033;-76
2023/01/14 09:44:18;;;;;;;13.23;3.42;;;;;;;6.45;100.00;100285.31;5242675;28;20156;-76
2023/01/14 09:46:51;;;;;;;11.30;3.60;;;;;;;6.46;100.00;100287.03;5248629;28;20024;-76
2023/01/14 09:49:25;;;;;;;9.80;3.38;;;;;;;6.48;100.00;100285.13;5247011;28;20033;-75
2023/01/14 09:52:06;;;;;;;12.63;3.08;;;;;;;6.51;100.00;100276.09;5246655;28;20402;-76
2023/01/14 09:54:56;;;;;;;14.68;3.47;;;;;;;6.55;100.00;100268.78;5243971;28;20787;-75
2023/01/14 09:57:37;;;;;;;12.50;3.20;;;;;;;6.57;100.00;100265.06;5247647;28;20032;-76
2023/01/14 10:00:28;;;;;;;11.15;2.40;;;;;;;6.59;100.00;100264.97;5246123;28;20040;-76
2023/01/14 10:03:20;;;;;;;12.65;2.63;;;;;;;6.61;100.00;100249.81;5241558;28;20041;-76
2023/01/14 10:05:57;;;;;;;11.52;3.65;;;;;;;6.64;100.00;100244.31;5246964;28;20029;-76
2023/01/14 10:08:36;;;;;;;9.65;3.17;;;;;;;6.68;100.00;100228.06;5248061;28;20088;-76
2023/01/14 10:11:10;;;;;;;12.77;3.40;;;;;;;6.70;100.00;100222.66;5244511;28;20101;-77
2023/01/14 10:13:49;;;;;;;14.25;3.53;;;;;;;6.75;100.00;100209.94;5246227;28;20446;-76
2023/01/14 10:16:34;;;;;;;13.07;3.38;;;;;;;6.77;100.00;100200.06;5248860;28;20028;-77
2023/01/14 10:19:46;;;;;;;11.77;2.85;;;;;;;6.81;100.00;100190.09;5248761;28;20043;-76
2023/01/14 10:22:57;;;;;;;7.55;2.40;;;;;;;6.85;100.00;100176.50;5195177;28;20385;-76
2023/01/14 10:25:28;;;;;;;10.00;2.50;;;;;;;6.89;100.00;100176.28;5241885;28;20040;-72
2023/01/14 10:28:00;;;;;;;15.50;3.40;;;;;;;6.92;100.00;100157.47;5248315;28;20044;-72
2023/01/14 10:30:34;;;;;;;9.85;2.53;;;;;;;6.97;100.00;100144.75;5255058;28;20471;-72
2023/01/14 10:33:07;;;;;;;;;;;;;;;6.98;100.00;100142.00;5249534;28;20079;-72
2023/01/14 10:35:41;;;;;;;10.35;2.55;;;;;;;7.02;100.00;100135.50;5251318;28;19939;-72
2023/01/14 10:38:18;;;;;;;7.30;2.40;;;;;;;7.04;100.00;100148.66;5254549;28;20043;-72
2023/01/14 10:40:53;;;;;;;9.40;2.70;;;;;;;7.10;100.00;100126.13;5249833;28;20025;-72
2023/01/14 10:43:51;;;;;;;11.52;2.75;;;;;;;7.12;100.00;100117.09;5248443;28;20037;-72
2023/01/14 10:46:22;;;;;;;8.55;1.92;;;;;;;7.12;100.00;100109.13;5246684;28;20628;-72
2023/01/14 10:49:02;;;;;;;7.32;2.20;;;;;;;7.18;100.00;100103.38;5249584;28;20064;-72
2023/01/14 10:51:38;;;;;;;10.38;2.70;;;;;;;7.21;100.00;100089.03;5250958;28;20181;-72
2023/01/14 10:54:18;;;;;;;10.48;2.67;;;;;;;7.24;100.00;100073.72;5249241;28;20025;-72
2023/01/14 10:56:52;;;;;;;9.68;2.28;;;;;;;7.30;100.00;100082.19;5254638;28;20060;-72
2023/01/14 10:59:33;;;;;;;7.95;2.60;;;;;;;7.32;100.00;100069.66;5244317;28;20032;-72
2023/01/14 11:02:05;;;;;;;8.65;1.77;;;;;;;7.37;100.00;100062.19;5253286;28;20033;-72
2023/01/14 11:04:41;;;;;;;7.50;1.73;;;;;;;7.37;100.00;100047.13;5247135;28;20472;-73
2023/01/14 11:07:25;;;;;;;6.57;1.90;;;;;;;7.40;100.00;100043.38;5243934;28;20048;-72
2023/01/14 11:10:14;;;;;;;7.53;1.73;;;;;;;7.44;100.00;100036.88;5246537;28;20124;-72
2023/01/14 11:12:45;;;;;;;8.95;2.00;;;;;;;7.48;100.00;100030.38;5251113;28;20032;-72
2023/01/14 11:15:38;;;;;;;5.65;1.42;;;;;;;7.51;100.00;100024.00;5250119;28;20074;-72
2023/01/14 11:18:18;;;;;;;5.88;1.70;;;;;;;7.57;100.00;100013.72;5266147;28;20039;-72
2023/01/14 11:21:03;;;;;;;6.50;1.60;;;;;;;7.59;100.00;100001.22;5243904;28;20563;-72
2023/01/14 11:23:37;;;;;;;5.88;1.60;;;;;;;7.60;100.00;100000.22;5251283;28;20497;-72
2023/01/14 11:26:12;;;;;;;8.70;2.47;;;;;;;7.63;100.00;99992.03;5250583;28;20030;-73
2023/01/14 11:28:45;;;;;;;;;;;;;;;7.65;100.00;99999.84;5265693;28;20043;-72
2023/01/14 11:31:32;;;;;;;4.43;1.30;;;;;;;7.67;100.00;99992.66;5250706;28;19963;-73
2023/01/14 11:34:15;;;;;;;4.47;1.48;;;;;;;7.66;100.00;99983.81;5256889;28;20021;-73
2023/01/14 11:36:46;;;;;;;5.43;1.60;;;;;;;7.69;100.00;99966.81;5254011;28;20270;-73
2023/01/14 11:39:20;;;;;;;4.65;1.60;;;;;;;7.70;100.00;99963.19;5263430;28;20028;-72
2023/01/14 11:41:52;;;;;;;;;;;;;;;7.73;100.00;99962.94;5254010;28;20025;-73
2023/01/14 11:44:23;;;;;;;6.38;1.58;;;;;;;7.75;100.00;99961.03;5240677;28;19928;-73
2023/01/14 11:47:13;;;;;;;5.25;1.80;;;;;;;7.77;100.00;99960.91;5253240;28;20494;-73
2023/01/14 11:49:44;;;;;;;6.97;1.75;;;;;;;7.77;100.00;99953.78;5253134;28;20017;-73
2023/01/14 11:52:18;;;;;;;3.47;1.35;;;;;;;7.80;100.00;99940.22;5247492;28;20037;-73
2023/01/14 11:54:52;;;;;;;;;;;;;;;7.82;100.00;99946.28;5250246;28;20030;-73
2023/01/14 11:57:25;;;;;;;3.55;1.20;;;;;;;7.81;100.00;99936.63;5247604;28;19924;-73
2023/01/14 11:59:56;;;;;;;6.10;1.33;;;;;;;7.82;100.00;99932.16;5253921;28;20045;-73
2023/01/14 12:02:34;;;;;;;5.57;1.20;;;;;;;7.84;100.00;99919.59;5251821;28;20108;-73
2023/01/14 12:05:14;;;;;;;2.97;1.10;;;;;;;7.83;100.00;99910.78;5240054;28;20448;-73
2023/01/14 12:07:52;;;;;;;5.18;1.30;;;;;;;7.86;100.00;99915.00;5255720;28;20039;-73
2023/01/14 12:10:32;;;;;;;3.30;1.08;;;;;;;7.86;100.00;99907.03;5253878;28;20056;-73
2023/01/14 12:19:12;;;;;;;4.82;1.30;;;;;;;7.93;100.00;99870.22;5254240;28;20799;-73
2023/01/14 12:21:48;;;;;;;2.95;1.08;;;;;;;7.93;100.00;99870.22;5255015;28;20067;-73
2023/01/14 12:24:32;;;;;;;5.53;1.20;;;;;;;7.94;100.00;99862.13;5252819;28;20033;-74
2023/01/14 12:27:13;;;;;;;4.63;1.10;;;;;;;7.94;100.00;99851.50;5254697;28;20552;-74
2023/01/14 12:29:45;;;;;;;5.05;0.98;;;;;;;7.95;100.00;99842.56;5255612;28;20032;-73